sensor_id;sensor_type;location;lat;lon;timestamp;temperature;humidity
2851;DHT22;1433;49.976;8.342;2023-04-01T00:00:31;10.80;99.90
2851;DHT22;1433;49.976;8.342;2023-04-01T00:02:57;10.80;99.90
2851;DHT22;1433;49.976;8.342;2023-04-01T00:05:23;10.80;99.90
2851;DHT22;1433;49.976;8.342;2023-04-01T00:07:51;10.80;99.90
2851;DHT22;1433;49.976;8.342;2023-04-01T00:10:17;10.80;99.90
2851;DHT22;1433;49.976;8.342;2023-04-01T00:12:44;10.80;99.90
2851;DHT22;1433;49.976;8.342;2023-04-01T00:15:11;10.80;99.90
2851;DHT22;1433;49.976;8.342;2023-04-01T00:17:38;10.90;99.90
2851;DHT22;1433;49.976;8.342;2023-04-01T00:20:05;10.90;99.90
2851;DHT22;1433;49.976;8.342;2023-04-01T00:22:33;10.90;99.90
2851;DHT22;1433;49.976;8.342;2023-04-01T00:24:59;10.90;99.90
2851;DHT22;1433;49.976;8.342;2023-04-01T00:27:26;10.90;99.90
2851;DHT22;1433;49.976;8.342;2023-04-01T00:29:52;10.90;99.90
2851;DHT22;1433;49.976;8.342;2023-04-01T00:32:19;10.90;99.90
2851;DHT22;1433;49.976;8.342;2023-04-01T00:34:45;10.90;99.90
2851;DHT22;1433;49.976;8.342;2023-04-01T00:37:11;10.90;99.90
2851;DHT22;1433;49.976;8.342;2023-04-01T00:39:37;11.00;99.90
2851;DHT22;1433;49.976;8.342;2023-04-01T00:42:04;11.00;99.90
2851;DHT22;1433;49.976;8.342;2023-04-01T00:44:32;11.00;99.90
2851;DHT22;1433;49.976;8.342;2023-04-01T00:47:00;10.90;99.90
2851;DHT22;1433;49.976;8.342;2023-04-01T00:49:37;10.90;99.90
2851;DHT22;1433;49.976;8.342;2023-04-01T00:52:00;10.90;99.90
2851;DHT22;1433;49.976;8.342;2023-04-01T00:54:28;10.90;99.90
2851;DHT22;1433;49.976;8.342;2023-04-01T00:59:30;10.90;99.90
2851;DHT22;1433;49.976;8.342;2023-04-01T01:01:58;10.90;99.90
2851;DHT22;1433;49.976;8.342;2023-04-01T01:04:30;10.90;99.90
2851;DHT22;1433;49.976;8.342;2023-04-01T01:09:55;10.90;99.90
2851;DHT22;1433;49.976;8.342;2023-04-01T01:15:26;10.90;99.90
2851;DHT22;1433;49.976;8.342;2023-04-01T01:36:53;10.80;99.90
2851;DHT22;1433;49.976;8.342;2023-04-01T01:39:20;10.80;99.90
2851;DHT22;1433;49.976;8.342;2023-04-01T01:41:49;10.80;99.90
2851;DHT22;1433;49.976;8.342;2023-04-01T01:44:16;10.80;99.90
2851;DHT22;1433;49.976;8.342;2023-04-01T01:46:44;10.80;99.90
2851;DHT22;1433;49.976;8.342;2023-04-01T01:49:12;10.80;99.90
2851;DHT22;1433;49.976;8.342;2023-04-01T01:51:38;10.80;99.90
2851;DHT22;1433;49.976;8.342;2023-04-01T01:54:16;10.80;99.90
2851;DHT22;1433;49.976;8.342;2023-04-01T01:56:41;10.80;99.90
2851;DHT22;1433;49.976;8.342;2023-04-01T01:59:09;10.80;99.90
2851;DHT22;1433;49.976;8.342;2023-04-01T02:01:40;10.80;99.90
2851;DHT22;1433;49.976;8.342;2023-04-01T02:04:10;10.80;99.90
2851;DHT22;1433;49.976;8.342;2023-04-01T02:06:39;10.80;99.90
2851;DHT22;1433;49.976;8.342;2023-04-01T02:09:08;10.80;99.90
2851;DHT22;1433;49.976;8.342;2023-04-01T02:11:40;10.80;99.90
2851;DHT22;1433;49.976;8.342;2023-04-01T02:14:15;10.70;99.90
2851;DHT22;1433;49.976;8.342;2023-04-01T02:16:49;10.80;99.90
2851;DHT22;1433;49.976;8.342;2023-04-01T02:19:17;10.70;99.90
2851;DHT22;1433;49.976;8.342;2023-04-01T02:21:45;10.70;99.90
2851;DHT22;1433;49.976;8.342;2023-04-01T02:24:14;10.70;99.90
2851;DHT22;1433;49.976;8.342;2023-04-01T02:26:41;10.70;99.90
2851;DHT22;1433;49.976;8.342;2023-04-01T02:29:09;10.70;99.90
2851;DHT22;1433;49.976;8.342;2023-04-01T02:31:36;10.70;99.90
2851;DHT22;1433;49.976;8.342;2023-04-01T02:34:03;10.70;99.90
2851;DHT22;1433;49.976;8.342;2023-04-01T02:36:30;10.70;99.90
2851;DHT22;1433;49.976;8.342;2023-04-01T02:38:58;10.70;99.90
2851;DHT22;1433;49.976;8.342;2023-04-01T02:41:26;10.70;99.90
2851;DHT22;1433;49.976;8.342;2023-04-01T02:43:52;10.60;99.90
2851;DHT22;1433;49.976;8.342;2023-04-01T02:46:18;10.70;99.90
2851;DHT22;1433;49.976;8.342;2023-04-01T02:48:44;10.60;99.90
2851;DHT22;1433;49.976;8.342;2023-04-01T02:51:10;10.60;99.90
2851;DHT22;1433;49.976;8.342;2023-04-01T02:53:37;10.60;99.90
2851;DHT22;1433;49.976;8.342;2023-04-01T02:56:03;10.60;99.90
2851;DHT22;1433;49.976;8.342;2023-04-01T02:58:29;10.60;99.90
2851;DHT22;1433;49.976;8.342;2023-04-01T03:00:55;10.60;99.90
2851;DHT22;1433;49.976;8.342;2023-04-01T03:03:21;10.60;99.90
2851;DHT22;1433;49.976;8.342;2023-04-01T03:05:48;10.60;99.90
2851;DHT22;1433;49.976;8.342;2023-04-01T03:08:14;10.50;99.90
2851;DHT22;1433;49.976;8.342;2023-04-01T03:10:40;10.50;99.90
2851;DHT22;1433;49.976;8.342;2023-04-01T03:13:07;10.50;99.90
2851;DHT22;1433;49.976;8.342;2023-04-01T03:15:34;10.60;99.90
2851;DHT22;1433;49.976;8.342;2023-04-01T03:18:00;10.60;99.90
2851;DHT22;1433;49.976;8.342;2023-04-01T03:20:26;10.60;99.90
2851;DHT22;1433;49.976;8.342;2023-04-01T03:22:52;10.60;99.90
2851;DHT22;1433;49.976;8.342;2023-04-01T03:25:18;10.60;99.90
2851;DHT22;1433;49.976;8.342;2023-04-01T03:27:45;10.60;99.90
2851;DHT22;1433;49.976;8.342;2023-04-01T03:30:11;10.60;99.90
2851;DHT22;1433;49.976;8.342;2023-04-01T03:32:39;10.60;99.90
2851;DHT22;1433;49.976;8.342;2023-04-01T03:35:06;10.60;99.90
2851;DHT22;1433;49.976;8.342;2023-04-01T03:37:32;10.60;99.90
2851;DHT22;1433;49.976;8.342;2023-04-01T03:39:58;10.60;99.90
2851;DHT22;1433;49.976;8.342;2023-04-01T03:42:24;10.50;99.90
2851;DHT22;1433;49.976;8.342;2023-04-01T03:44:51;10.50;99.90
2851;DHT22;1433;49.976;8.342;2023-04-01T03:47:17;10.50;99.90
2851;DHT22;1433;49.976;8.342;2023-04-01T03:49:43;10.40;99.90
2851;DHT22;1433;49.976;8.342;2023-04-01T03:52:10;10.40;99.90
2851;DHT22;1433;49.976;8.342;2023-04-01T03:54:37;10.40;99.90
2851;DHT22;1433;49.976;8.342;2023-04-01T03:57:03;10.40;99.90
2851;DHT22;1433;49.976;8.342;2023-04-01T03:59:30;10.50;99.90
2851;DHT22;1433;49.976;8.342;2023-04-01T04:01:56;10.40;99.90
2851;DHT22;1433;49.976;8.342;2023-04-01T04:04:23;10.40;99.90
2851;DHT22;1433;49.976;8.342;2023-04-01T04:06:49;10.50;99.90
2851;DHT22;1433;49.976;8.342;2023-04-01T04:09:17;10.50;99.90
2851;DHT22;1433;49.976;8.342;2023-04-01T04:11:43;10.60;99.90
2851;DHT22;1433;49.976;8.342;2023-04-01T04:14:09;10.60;99.90
2851;DHT22;1433;49.976;8.342;2023-04-01T04:16:36;10.60;99.90
2851;DHT22;1433;49.976;8.342;2023-04-01T04:19:03;10.60;99.90
2851;DHT22;1433;49.976;8.342;2023-04-01T04:21:30;10.70;99.90
2851;DHT22;1433;49.976;8.342;2023-04-01T04:23:56;10.70;99.90
2851;DHT22;1433;49.976;8.342;2023-04-01T04:26:23;10.60;99.90
2851;DHT22;1433;49.976;8.342;2023-04-01T04:28:52;10.60;99.90
2851;DHT22;1433;49.976;8.342;2023-04-01T04:31:20;10.60;99.90
2851;DHT22;1433;49.976;8.342;2023-04-01T04:33:47;10.60;99.90
2851;DHT22;1433;49.976;8.342;2023-04-01T04:36:14;10.60;99.90
2851;DHT22;1433;49.976;8.342;2023-04-01T04:38:41;10.50;99.90
2851;DHT22;1433;49.976;8.342;2023-04-01T04:41:14;10.50;99.90
2851;DHT22;1433;49.976;8.342;2023-04-01T04:43:41;10.50;99.90
2851;DHT22;1433;49.976;8.342;2023-04-01T04:46:09;10.40;99.90
2851;DHT22;1433;49.976;8.342;2023-04-01T04:48:36;10.40;99.90
2851;DHT22;1433;49.976;8.342;2023-04-01T04:51:02;10.40;99.90
2851;DHT22;1433;49.976;8.342;2023-04-01T04:53:29;10.40;99.90
2851;DHT22;1433;49.976;8.342;2023-04-01T04:55:55;10.40;99.90
2851;DHT22;1433;49.976;8.342;2023-04-01T04:58:42;10.40;99.90
2851;DHT22;1433;49.976;8.342;2023-04-01T05:01:11;10.40;99.90
2851;DHT22;1433;49.976;8.342;2023-04-01T05:03:38;10.40;99.90
2851;DHT22;1433;49.976;8.342;2023-04-01T05:06:05;10.30;99.90
2851;DHT22;1433;49.976;8.342;2023-04-01T05:08:33;10.30;99.90
2851;DHT22;1433;49.976;8.342;2023-04-01T05:11:00;10.30;99.90
2851;DHT22;1433;49.976;8.342;2023-04-01T05:13:28;10.30;99.90
2851;DHT22;1433;49.976;8.342;2023-04-01T05:15:55;10.30;99.90
2851;DHT22;1433;49.976;8.342;2023-04-01T05:18:21;10.40;99.90
2851;DHT22;1433;49.976;8.342;2023-04-01T05:20:52;10.40;99.90
2851;DHT22;1433;49.976;8.342;2023-04-01T05:23:21;10.40;99.90
2851;DHT22;1433;49.976;8.342;2023-04-01T05:25:48;10.40;99.90
2851;DHT22;1433;49.976;8.342;2023-04-01T05:28:15;10.40;99.90
2851;DHT22;1433;49.976;8.342;2023-04-01T05:30:43;10.40;99.90
2851;DHT22;1433;49.976;8.342;2023-04-01T05:33:13;10.50;99.90
2851;DHT22;1433;49.976;8.342;2023-04-01T05:35:40;10.50;99.90
2851;DHT22;1433;49.976;8.342;2023-04-01T05:38:07;10.50;99.90
2851;DHT22;1433;49.976;8.342;2023-04-01T05:40:34;10.40;99.90
2851;DHT22;1433;49.976;8.342;2023-04-01T05:43:00;10.40;99.90
2851;DHT22;1433;49.976;8.342;2023-04-01T05:45:27;10.40;99.90
2851;DHT22;1433;49.976;8.342;2023-04-01T05:48:12;10.50;99.90
2851;DHT22;1433;49.976;8.342;2023-04-01T05:50:40;10.50;99.90
2851;DHT22;1433;49.976;8.342;2023-04-01T05:53:08;10.50;99.90
2851;DHT22;1433;49.976;8.342;2023-04-01T05:55:35;10.50;99.90
2851;DHT22;1433;49.976;8.342;2023-04-01T05:58:02;10.50;99.90
2851;DHT22;1433;49.976;8.342;2023-04-01T06:00:29;10.50;99.90
2851;DHT22;1433;49.976;8.342;2023-04-01T06:02:58;10.60;99.90
2851;DHT22;1433;49.976;8.342;2023-04-01T06:05:29;10.60;99.90
2851;DHT22;1433;49.976;8.342;2023-04-01T06:08:01;10.60;99.90
2851;DHT22;1433;49.976;8.342;2023-04-01T06:10:39;10.60;99.90
2851;DHT22;1433;49.976;8.342;2023-04-01T06:13:12;10.60;99.90
2851;DHT22;1433;49.976;8.342;2023-04-01T06:15:43;10.60;99.90
2851;DHT22;1433;49.976;8.342;2023-04-01T06:21:10;10.70;99.90
2851;DHT22;1433;49.976;8.342;2023-04-01T06:35:03;10.70;99.90
2851;DHT22;1433;49.976;8.342;2023-04-01T06:43:34;10.80;99.90
2851;DHT22;1433;49.976;8.342;2023-04-01T06:46:32;10.80;99.90
2851;DHT22;1433;49.976;8.342;2023-04-01T06:52:26;10.80;99.90
2851;DHT22;1433;49.976;8.342;2023-04-01T06:58:04;10.80;99.90
2851;DHT22;1433;49.976;8.342;2023-04-01T07:00:37;10.80;99.90
2851;DHT22;1433;49.976;8.342;2023-04-01T07:03:23;10.80;99.90
2851;DHT22;1433;49.976;8.342;2023-04-01T07:05:47;10.80;99.90
2851;DHT22;1433;49.976;8.342;2023-04-01T07:08:22;11.00;99.90
2851;DHT22;1433;49.976;8.342;2023-04-01T07:11:04;10.90;99.90
2851;DHT22;1433;49.976;8.342;2023-04-01T07:13:53;10.90;99.90
2851;DHT22;1433;49.976;8.342;2023-04-01T07:16:39;11.00;99.90
2851;DHT22;1433;49.976;8.342;2023-04-01T07:25:22;11.20;99.90
2851;DHT22;1433;49.976;8.342;2023-04-01T07:27:48;11.30;99.90
2851;DHT22;1433;49.976;8.342;2023-04-01T07:30:20;11.20;99.90
2851;DHT22;1433;49.976;8.342;2023-04-01T07:33:00;11.30;99.90
2851;DHT22;1433;49.976;8.342;2023-04-01T07:35:35;11.30;99.90
2851;DHT22;1433;49.976;8.342;2023-04-01T07:41:08;11.40;99.90
2851;DHT22;1433;49.976;8.342;2023-04-01T07:49:36;11.70;99.90
2851;DHT22;1433;49.976;8.342;2023-04-01T07:57:31;11.90;99.90
2851;DHT22;1433;49.976;8.342;2023-04-01T08:11:49;11.70;99.90
2851;DHT22;1433;49.976;8.342;2023-04-01T08:20:09;11.30;99.90
2851;DHT22;1433;49.976;8.342;2023-04-01T08:25:20;11.20;99.90
2851;DHT22;1433;49.976;8.342;2023-04-01T08:30:39;11.10;99.90
2851;DHT22;1433;49.976;8.342;2023-04-01T08:33:15;11.20;99.90
2851;DHT22;1433;49.976;8.342;2023-04-01T08:35:51;11.10;99.90
2851;DHT22;1433;49.976;8.342;2023-04-01T08:38:31;11.10;99.90
2851;DHT22;1433;49.976;8.342;2023-04-01T08:41:10;11.10;99.90
2851;DHT22;1433;49.976;8.342;2023-04-01T08:46:46;11.20;99.90
2851;DHT22;1433;49.976;8.342;2023-04-01T08:49:42;11.20;99.90
2851;DHT22;1433;49.976;8.342;2023-04-01T09:15:02;11.20;99.90
2851;DHT22;1433;49.976;8.342;2023-04-01T09:17:50;11.10;99.90
2851;DHT22;1433;49.976;8.342;2023-04-01T09:20:23;11.00;99.90
2851;DHT22;1433;49.976;8.342;2023-04-01T09:37:35;10.90;99.90
2851;DHT22;1433;49.976;8.342;2023-04-01T09:40:13;10.80;99.90
2851;DHT22;1433;49.976;8.342;2023-04-01T09:43:28;10.90;99.90
2851;DHT22;1433;49.976;8.342;2023-04-01T09:59:37;11.40;99.90
2851;DHT22;1433;49.976;8.342;2023-04-01T10:19:10;12.10;99.90
2851;DHT22;1433;49.976;8.342;2023-04-01T10:21:38;12.00;99.90
2851;DHT22;1433;49.976;8.342;2023-04-01T10:38:25;11.60;99.90
2851;DHT22;1433;49.976;8.342;2023-04-01T11:19:10;12.80;99.90
2851;DHT22;1433;49.976;8.342;2023-04-01T11:30:10;12.60;99.90
2851;DHT22;1433;49.976;8.342;2023-04-01T11:33:05;12.60;99.90
2851;DHT22;1433;49.976;8.342;2023-04-01T11:55:50;12.70;99.90
2851;DHT22;1433;49.976;8.342;2023-04-01T12:01:20;12.60;99.90
2851;DHT22;1433;49.976;8.342;2023-04-01T12:12:29;12.50;99.90
2851;DHT22;1433;49.976;8.342;2023-04-01T12:17:39;12.30;99.90
2851;DHT22;1433;49.976;8.342;2023-04-01T12:20:28;12.40;99.90
2851;DHT22;1433;49.976;8.342;2023-04-01T12:36:37;12.20;99.90
2851;DHT22;1433;49.976;8.342;2023-04-01T12:39:35;12.40;99.90
2851;DHT22;1433;49.976;8.342;2023-04-01T12:42:30;12.50;99.90
2851;DHT22;1433;49.976;8.342;2023-04-01T12:52:08;11.30;99.90
2851;DHT22;1433;49.976;8.342;2023-04-01T12:57:26;11.10;99.90
2851;DHT22;1433;49.976;8.342;2023-04-01T13:19:54;11.60;99.90
2851;DHT22;1433;49.976;8.342;2023-04-01T13:22:33;11.70;99.90
2851;DHT22;1433;49.976;8.342;2023-04-01T13:25:06;11.50;99.90
2851;DHT22;1433;49.976;8.342;2023-04-01T13:27:40;11.60;99.90
2851;DHT22;1433;49.976;8.342;2023-04-01T13:35:51;11.50;99.90
2851;DHT22;1433;49.976;8.342;2023-04-01T13:38:45;11.60;99.90
2851;DHT22;1433;49.976;8.342;2023-04-01T13:41:35;11.60;99.90
2851;DHT22;1433;49.976;8.342;2023-04-01T13:44:11;11.50;99.90
2851;DHT22;1433;49.976;8.342;2023-04-01T13:46:42;11.50;99.90
2851;DHT22;1433;49.976;8.342;2023-04-01T13:49:28;11.70;99.90
2851;DHT22;1433;49.976;8.342;2023-04-01T14:03:15;12.70;99.90
2851;DHT22;1433;49.976;8.342;2023-04-01T14:06:06;12.90;99.90
2851;DHT22;1433;49.976;8.342;2023-04-01T14:09:03;12.90;99.90
2851;DHT22;1433;49.976;8.342;2023-04-01T14:11:36;12.90;99.90
2851;DHT22;1433;49.976;8.342;2023-04-01T14:17:24;12.60;99.90
2851;DHT22;1433;49.976;8.342;2023-04-01T14:22:52;12.80;99.90
2851;DHT22;1433;49.976;8.342;2023-04-01T14:28:18;12.70;99.90
2851;DHT22;1433;49.976;8.342;2023-04-01T14:31:18;12.70;99.90
2851;DHT22;1433;49.976;8.342;2023-04-01T14:34:03;12.70;99.90
2851;DHT22;1433;49.976;8.342;2023-04-01T14:39:47;12.80;99.90
2851;DHT22;1433;49.976;8.342;2023-04-01T14:48:38;12.70;99.90
2851;DHT22;1433;49.976;8.342;2023-04-01T14:53:43;12.40;99.90
2851;DHT22;1433;49.976;8.342;2023-04-01T14:56:11;12.50;99.90
2851;DHT22;1433;49.976;8.342;2023-04-01T14:58:46;12.60;99.90
2851;DHT22;1433;49.976;8.342;2023-04-01T15:04:25;12.40;99.90
2851;DHT22;1433;49.976;8.342;2023-04-01T15:12:56;12.40;99.90
2851;DHT22;1433;49.976;8.342;2023-04-01T15:18:11;13.00;99.90
2851;DHT22;1433;49.976;8.342;2023-04-01T15:20:50;13.30;99.90
2851;DHT22;1433;49.976;8.342;2023-04-01T15:31:38;13.70;99.90
2851;DHT22;1433;49.976;8.342;2023-04-01T15:34:08;13.70;99.90
2851;DHT22;1433;49.976;8.342;2023-04-01T15:39:14;13.60;99.90
2851;DHT22;1433;49.976;8.342;2023-04-01T15:45:02;13.90;99.90
2851;DHT22;1433;49.976;8.342;2023-04-01T15:47:41;13.90;99.90
2851;DHT22;1433;49.976;8.342;2023-04-01T15:53:13;13.30;99.90
2851;DHT22;1433;49.976;8.342;2023-04-01T15:58:32;12.90;99.90
2851;DHT22;1433;49.976;8.342;2023-04-01T16:09:10;12.30;99.90
2851;DHT22;1433;49.976;8.342;2023-04-01T16:17:25;12.00;99.90
2851;DHT22;1433;49.976;8.342;2023-04-01T16:19:56;12.00;99.90
2851;DHT22;1433;49.976;8.342;2023-04-01T16:22:32;12.00;99.90
2851;DHT22;1433;49.976;8.342;2023-04-01T16:30:40;12.10;99.90
2851;DHT22;1433;49.976;8.342;2023-04-01T16:35:58;11.90;99.90
2851;DHT22;1433;49.976;8.342;2023-04-01T16:38:41;11.90;99.90
2851;DHT22;1433;49.976;8.342;2023-04-01T16:41:17;11.90;99.90
2851;DHT22;1433;49.976;8.342;2023-04-01T16:43:52;11.90;99.90
2851;DHT22;1433;49.976;8.342;2023-04-01T16:46:41;11.90;99.90
2851;DHT22;1433;49.976;8.342;2023-04-01T16:49:29;11.90;99.90
2851;DHT22;1433;49.976;8.342;2023-04-01T16:54:55;11.70;99.90
2851;DHT22;1433;49.976;8.342;2023-04-01T17:00:17;11.70;99.90
2851;DHT22;1433;49.976;8.342;2023-04-01T17:03:02;11.80;99.90
2851;DHT22;1433;49.976;8.342;2023-04-01T17:08:30;11.70;99.90
2851;DHT22;1433;49.976;8.342;2023-04-01T17:11:21;11.70;99.90
2851;DHT22;1433;49.976;8.342;2023-04-01T17:13:38;11.60;99.90
2851;DHT22;1433;49.976;8.342;2023-04-01T17:19:15;11.60;99.90
2851;DHT22;1433;49.976;8.342;2023-04-01T17:33:21;11.70;99.90
2851;DHT22;1433;49.976;8.342;2023-04-01T17:38:54;11.60;99.90
2851;DHT22;1433;49.976;8.342;2023-04-01T17:41:31;11.50;99.90
2851;DHT22;1433;49.976;8.342;2023-04-01T17:44:31;11.50;99.90
2851;DHT22;1433;49.976;8.342;2023-04-01T17:47:18;11.40;99.90
2851;DHT22;1433;49.976;8.342;2023-04-01T17:49:53;11.30;99.90
2851;DHT22;1433;49.976;8.342;2023-04-01T17:52:42;11.30;99.90
2851;DHT22;1433;49.976;8.342;2023-04-01T18:11:54;11.10;99.90
2851;DHT22;1433;49.976;8.342;2023-04-01T18:22:22;11.00;99.90
2851;DHT22;1433;49.976;8.342;2023-04-01T18:27:41;11.10;99.90
2851;DHT22;1433;49.976;8.342;2023-04-01T18:30:12;11.00;99.90
2851;DHT22;1433;49.976;8.342;2023-04-01T18:35:52;11.00;99.90
2851;DHT22;1433;49.976;8.342;2023-04-01T18:38:29;11.00;99.90
2851;DHT22;1433;49.976;8.342;2023-04-01T18:47:03;10.90;99.90
2851;DHT22;1433;49.976;8.342;2023-04-01T18:52:34;10.80;99.90
2851;DHT22;1433;49.976;8.342;2023-04-01T18:57:52;10.70;99.90
2851;DHT22;1433;49.976;8.342;2023-04-01T19:00:22;10.60;99.90
2851;DHT22;1433;49.976;8.342;2023-04-01T19:05:36;10.50;99.90
2851;DHT22;1433;49.976;8.342;2023-04-01T19:08:38;10.50;99.90
2851;DHT22;1433;49.976;8.342;2023-04-01T19:19:28;10.30;99.90
2851;DHT22;1433;49.976;8.342;2023-04-01T19:21:58;10.30;99.90
2851;DHT22;1433;49.976;8.342;2023-04-01T19:38:31;10.10;99.90
2851;DHT22;1433;49.976;8.342;2023-04-01T19:43:49;10.10;99.90
2851;DHT22;1433;49.976;8.342;2023-04-01T19:46:28;10.10;99.90
2851;DHT22;1433;49.976;8.342;2023-04-01T19:51:37;10.10;99.90
2851;DHT22;1433;49.976;8.342;2023-04-01T19:54:24;10.10;99.90
2851;DHT22;1433;49.976;8.342;2023-04-01T20:04:47;10.00;99.90
2851;DHT22;1433;49.976;8.342;2023-04-01T20:07:23;10.00;99.90
2851;DHT22;1433;49.976;8.342;2023-04-01T20:15:03;9.90;99.90
2851;DHT22;1433;49.976;8.342;2023-04-01T20:25:26;9.80;99.90
2851;DHT22;1433;49.976;8.342;2023-04-01T20:30:46;9.90;99.90
2851;DHT22;1433;49.976;8.342;2023-04-01T20:50:28;10.00;99.90
2851;DHT22;1433;49.976;8.342;2023-04-01T21:04:12;10.00;99.90
2851;DHT22;1433;49.976;8.342;2023-04-01T21:12:28;10.20;99.90
2851;DHT22;1433;49.976;8.342;2023-04-01T21:26:28;10.20;99.90
2851;DHT22;1433;49.976;8.342;2023-04-01T21:37:52;10.20;99.90
2851;DHT22;1433;49.976;8.342;2023-04-01T21:46:37;10.10;99.90
2851;DHT22;1433;49.976;8.342;2023-04-01T21:52:21;10.10;99.90
2851;DHT22;1433;49.976;8.342;2023-04-01T22:06:24;10.10;99.90
2851;DHT22;1433;49.976;8.342;2023-04-01T22:14:33;10.10;99.90
2851;DHT22;1433;49.976;8.342;2023-04-01T22:17:06;10.10;99.90
2851;DHT22;1433;49.976;8.342;2023-04-01T22:22:49;10.10;99.90
2851;DHT22;1433;49.976;8.342;2023-04-01T22:27:46;10.10;99.90
2851;DHT22;1433;49.976;8.342;2023-04-01T22:33:05;10.00;99.90
2851;DHT22;1433;49.976;8.342;2023-04-01T22:35:40;10.00;99.90
2851;DHT22;1433;49.976;8.342;2023-04-01T22:43:40;10.00;99.90
2851;DHT22;1433;49.976;8.342;2023-04-01T22:46:20;10.00;99.90
2851;DHT22;1433;49.976;8.342;2023-04-01T22:49:16;10.00;99.90
2851;DHT22;1433;49.976;8.342;2023-04-01T22:52:03;10.00;99.90
2851;DHT22;1433;49.976;8.342;2023-04-01T22:54:42;10.00;99.90
2851;DHT22;1433;49.976;8.342;2023-04-01T22:57:12;10.00;99.90
2851;DHT22;1433;49.976;8.342;2023-04-01T22:59:50;10.10;99.90
2851;DHT22;1433;49.976;8.342;2023-04-01T23:02:29;10.10;99.90
2851;DHT22;1433;49.976;8.342;2023-04-01T23:04:55;10.10;99.90
2851;DHT22;1433;49.976;8.342;2023-04-01T23:13:08;10.20;99.90
2851;DHT22;1433;49.976;8.342;2023-04-01T23:15:35;10.20;99.90
2851;DHT22;1433;49.976;8.342;2023-04-01T23:23:48;10.20;99.90
2851;DHT22;1433;49.976;8.342;2023-04-01T23:28:54;10.20;99.90
2851;DHT22;1433;49.976;8.342;2023-04-01T23:31:33;10.20;99.90
2851;DHT22;1433;49.976;8.342;2023-04-01T23:34:02;10.10;99.90
2851;DHT22;1433;49.976;8.342;2023-04-01T23:36:31;10.10;99.90
2851;DHT22;1433;49.976;8.342;2023-04-01T23:39:04;10.10;99.90
2851;DHT22;1433;49.976;8.342;2023-04-01T23:41:31;10.10;99.90
2851;DHT22;1433;49.976;8.342;2023-04-01T23:44:08;10.10;99.90
2851;DHT22;1433;49.976;8.342;2023-04-01T23:46:34;10.10;99.90
2851;DHT22;1433;49.976;8.342;2023-04-01T23:49:03;10.10;99.90
2851;DHT22;1433;49.976;8.342;2023-04-01T23:51:39;10.10;99.90
2851;DHT22;1433;49.976;8.342;2023-04-01T23:54:23;10.10;99.90
2851;DHT22;1433;49.976;8.342;2023-04-01T23:56:51;10.10;99.90
2851;DHT22;1433;49.976;8.342;2023-04-01T23:59:19;10.10;99.90
